sensor_id;sensor_type;location;lat;lon;timestamp;pressure;altitude;pressure_sealevel;temperature;humidity
47366;BME280;33105;47.964;7.982;2022-07-10T00:00:36;97284.50;;;15.73;67.70
47366;BME280;33105;47.964;7.982;2022-07-10T00:03:38;97276.25;;;15.81;66.83
47366;BME280;33105;47.964;7.982;2022-07-10T00:06:39;97279.66;;;15.83;67.52
47366;BME280;33105;47.964;7.982;2022-07-10T00:09:42;97273.22;;;15.89;67.15
47366;BME280;33105;47.964;7.982;2022-07-10T00:12:44;97272.66;;;15.82;67.15
47366;BME280;33105;47.964;7.982;2022-07-10T00:15:46;97273.28;;;15.87;66.65
47366;BME280;33105;47.964;7.982;2022-07-10T00:18:48;97272.84;;;15.79;68.69
47366;BME280;33105;47.964;7.982;2022-07-10T00:21:49;97269.03;;;15.67;67.11
47366;BME280;33105;47.964;7.982;2022-07-10T00:24:50;97266.47;;;15.66;68.09
47366;BME280;33105;47.964;7.982;2022-07-10T00:27:52;97267.25;;;15.68;67.61
47366;BME280;33105;47.964;7.982;2022-07-10T00:30:53;97263.53;;;15.54;68.58
47366;BME280;33105;47.964;7.982;2022-07-10T00:33:55;97263.81;;;15.48;70.01
47366;BME280;33105;47.964;7.982;2022-07-10T00:36:56;97266.75;;;15.42;69.63
47366;BME280;33105;47.964;7.982;2022-07-10T00:39:58;97268.91;;;15.34;70.07
47366;BME280;33105;47.964;7.982;2022-07-10T00:43:00;97271.56;;;15.34;70.96
47366;BME280;33105;47.964;7.982;2022-07-10T00:46:01;97275.47;;;15.25;69.75
47366;BME280;33105;47.964;7.982;2022-07-10T00:49:03;97270.75;;;15.14;71.65
47366;BME280;33105;47.964;7.982;2022-07-10T00:52:10;97260.50;;;15.08;71.70
47366;BME280;33105;47.964;7.982;2022-07-10T00:55:13;97267.50;;;15.09;71.52
47366;BME280;33105;47.964;7.982;2022-07-10T00:58:14;97269.19;;;15.10;72.12
47366;BME280;33105;47.964;7.982;2022-07-10T01:01:16;97253.91;;;15.19;72.70
47366;BME280;33105;47.964;7.982;2022-07-10T01:04:18;97259.78;;;15.24;71.92
47366;BME280;33105;47.964;7.982;2022-07-10T01:07:19;97255.78;;;15.34;70.62
47366;BME280;33105;47.964;7.982;2022-07-10T01:10:20;97255.38;;;15.42;70.29
47366;BME280;33105;47.964;7.982;2022-07-10T01:13:22;97246.78;;;15.38;69.41
47366;BME280;33105;47.964;7.982;2022-07-10T01:16:23;97237.44;;;15.32;71.11
47366;BME280;33105;47.964;7.982;2022-07-10T01:19:24;97235.16;;;15.25;71.32
47366;BME280;33105;47.964;7.982;2022-07-10T01:22:26;97242.31;;;15.23;72.98
47366;BME280;33105;47.964;7.982;2022-07-10T01:25:28;97238.56;;;15.27;72.27
47366;BME280;33105;47.964;7.982;2022-07-10T01:28:29;97238.56;;;15.27;71.37
47366;BME280;33105;47.964;7.982;2022-07-10T01:31:32;97235.34;;;15.22;71.28
47366;BME280;33105;47.964;7.982;2022-07-10T01:34:33;97250.81;;;15.28;69.55
47366;BME280;33105;47.964;7.982;2022-07-10T01:37:35;97243.06;;;15.25;69.74
47366;BME280;33105;47.964;7.982;2022-07-10T01:40:36;97240.59;;;15.22;70.29
47366;BME280;33105;47.964;7.982;2022-07-10T01:43:38;97252.63;;;15.08;71.03
47366;BME280;33105;47.964;7.982;2022-07-10T01:46:47;97249.50;;;15.00;73.34
47366;BME280;33105;47.964;7.982;2022-07-10T01:49:53;97248.38;;;14.87;72.80
47366;BME280;33105;47.964;7.982;2022-07-10T01:52:55;97236.69;;;14.75;73.71
47366;BME280;33105;47.964;7.982;2022-07-10T01:55:57;97240.31;;;14.72;73.86
47366;BME280;33105;47.964;7.982;2022-07-10T01:58:59;97240.31;;;14.72;74.40
47366;BME280;33105;47.964;7.982;2022-07-10T02:02:03;97250.31;;;14.64;75.14
47366;BME280;33105;47.964;7.982;2022-07-10T02:05:05;97240.03;;;14.60;76.05
47366;BME280;33105;47.964;7.982;2022-07-10T02:08:06;97245.38;;;14.58;74.81
47366;BME280;33105;47.964;7.982;2022-07-10T02:11:07;97251.31;;;14.43;75.31
47366;BME280;33105;47.964;7.982;2022-07-10T02:14:08;97253.84;;;14.44;75.50
47366;BME280;33105;47.964;7.982;2022-07-10T02:17:10;97254.03;;;14.40;75.03
47366;BME280;33105;47.964;7.982;2022-07-10T02:20:12;97258.94;;;14.28;75.98
47366;BME280;33105;47.964;7.982;2022-07-10T02:23:15;97272.56;;;14.18;77.25
47366;BME280;33105;47.964;7.982;2022-07-10T02:26:16;97274.47;;;14.14;76.42
47366;BME280;33105;47.964;7.982;2022-07-10T02:29:17;97275.50;;;14.10;76.42
47366;BME280;33105;47.964;7.982;2022-07-10T02:32:19;97287.47;;;13.97;77.18
47366;BME280;33105;47.964;7.982;2022-07-10T02:35:20;97278.00;;;13.93;77.22
47366;BME280;33105;47.964;7.982;2022-07-10T02:38:22;97283.16;;;13.96;77.37
47366;BME280;33105;47.964;7.982;2022-07-10T02:41:23;97282.25;;;13.95;79.02
47366;BME280;33105;47.964;7.982;2022-07-10T02:44:25;97276.66;;;14.04;78.57
47366;BME280;33105;47.964;7.982;2022-07-10T02:47:26;97276.16;;;14.15;78.03
47366;BME280;33105;47.964;7.982;2022-07-10T02:50:28;97273.25;;;14.21;77.16
47366;BME280;33105;47.964;7.982;2022-07-10T02:53:29;97274.25;;;14.19;78.03
47366;BME280;33105;47.964;7.982;2022-07-10T02:56:32;97264.59;;;14.19;77.38
47366;BME280;33105;47.964;7.982;2022-07-10T02:59:33;97269.22;;;14.14;77.63
47366;BME280;33105;47.964;7.982;2022-07-10T03:02:35;97259.75;;;14.10;77.02
47366;BME280;33105;47.964;7.982;2022-07-10T03:05:36;97266.00;;;14.07;77.84
47366;BME280;33105;47.964;7.982;2022-07-10T03:08:38;97265.28;;;14.04;78.70
47366;BME280;33105;47.964;7.982;2022-07-10T03:11:40;97268.09;;;13.99;78.86
47366;BME280;33105;47.964;7.982;2022-07-10T03:14:42;97255.25;;;13.93;77.04
47366;BME280;33105;47.964;7.982;2022-07-10T03:17:43;97258.84;;;13.90;79.00
47366;BME280;33105;47.964;7.982;2022-07-10T03:20:45;97258.22;;;13.85;77.99
47366;BME280;33105;47.964;7.982;2022-07-10T03:23:46;97260.19;;;13.80;79.04
47366;BME280;33105;47.964;7.982;2022-07-10T03:26:48;97260.00;;;13.85;79.23
47366;BME280;33105;47.964;7.982;2022-07-10T03:29:49;97259.00;;;13.87;79.83
47366;BME280;33105;47.964;7.982;2022-07-10T03:32:51;97261.47;;;13.90;79.16
47366;BME280;33105;47.964;7.982;2022-07-10T03:35:53;97257.16;;;13.89;79.36
47366;BME280;33105;47.964;7.982;2022-07-10T03:38:54;97259.84;;;13.88;79.39
47366;BME280;33105;47.964;7.982;2022-07-10T03:41:55;97263.31;;;13.88;79.06
47366;BME280;33105;47.964;7.982;2022-07-10T03:44:57;97255.59;;;13.85;80.07
47366;BME280;33105;47.964;7.982;2022-07-10T03:47:58;97257.56;;;13.80;80.00
47366;BME280;33105;47.964;7.982;2022-07-10T03:51:00;97246.94;;;13.83;79.45
47366;BME280;33105;47.964;7.982;2022-07-10T03:54:01;97253.16;;;13.81;80.08
47366;BME280;33105;47.964;7.982;2022-07-10T03:57:02;97253.81;;;13.86;79.41
47366;BME280;33105;47.964;7.982;2022-07-10T04:00:25;97261.88;;;13.81;79.78
47366;BME280;33105;47.964;7.982;2022-07-10T04:03:27;97261.81;;;13.83;80.43
47366;BME280;33105;47.964;7.982;2022-07-10T04:06:28;97263.47;;;13.85;79.83
47366;BME280;33105;47.964;7.982;2022-07-10T04:09:30;97258.47;;;13.79;78.45
47366;BME280;33105;47.964;7.982;2022-07-10T04:12:32;97259.41;;;13.78;79.42
47366;BME280;33105;47.964;7.982;2022-07-10T04:15:33;97262.88;;;13.58;81.53
47366;BME280;33105;47.964;7.982;2022-07-10T04:18:35;97260.19;;;13.60;82.01
47366;BME280;33105;47.964;7.982;2022-07-10T04:21:36;97260.50;;;13.73;82.85
47366;BME280;33105;47.964;7.982;2022-07-10T04:24:38;97257.63;;;13.79;82.41
47366;BME280;33105;47.964;7.982;2022-07-10T04:27:40;97268.06;;;13.80;81.84
47366;BME280;33105;47.964;7.982;2022-07-10T04:30:41;97267.25;;;13.99;81.38
47366;BME280;33105;47.964;7.982;2022-07-10T04:33:43;97263.59;;;14.03;80.69
47366;BME280;33105;47.964;7.982;2022-07-10T04:36:44;97262.00;;;13.99;81.09
47366;BME280;33105;47.964;7.982;2022-07-10T04:39:45;97249.41;;;14.07;82.81
47366;BME280;33105;47.964;7.982;2022-07-10T04:42:47;97252.69;;;14.12;81.87
47366;BME280;33105;47.964;7.982;2022-07-10T04:45:48;97256.03;;;14.16;82.03
47366;BME280;33105;47.964;7.982;2022-07-10T04:48:50;97253.19;;;14.20;81.76
47366;BME280;33105;47.964;7.982;2022-07-10T04:51:51;97263.69;;;14.20;81.21
47366;BME280;33105;47.964;7.982;2022-07-10T04:54:53;97264.47;;;14.22;82.65
47366;BME280;33105;47.964;7.982;2022-07-10T04:57:54;97263.50;;;14.25;81.76
47366;BME280;33105;47.964;7.982;2022-07-10T05:00:55;97268.31;;;14.34;83.07
47366;BME280;33105;47.964;7.982;2022-07-10T05:03:56;97277.69;;;14.40;80.33
47366;BME280;33105;47.964;7.982;2022-07-10T05:06:58;97273.88;;;14.47;82.16
47366;BME280;33105;47.964;7.982;2022-07-10T05:09:59;97276.13;;;14.56;82.68
47366;BME280;33105;47.964;7.982;2022-07-10T05:13:01;97268.06;;;14.59;81.33
47366;BME280;33105;47.964;7.982;2022-07-10T05:16:06;97267.59;;;14.70;78.45
47366;BME280;33105;47.964;7.982;2022-07-10T05:19:07;97276.59;;;14.64;80.05
47366;BME280;33105;47.964;7.982;2022-07-10T05:22:08;97273.31;;;14.59;80.63
47366;BME280;33105;47.964;7.982;2022-07-10T05:25:10;97276.91;;;14.58;81.00
47366;BME280;33105;47.964;7.982;2022-07-10T05:28:11;97271.84;;;14.72;80.11
47366;BME280;33105;47.964;7.982;2022-07-10T05:31:15;97283.09;;;14.93;78.28
47366;BME280;33105;47.964;7.982;2022-07-10T05:34:17;97278.13;;;15.06;80.83
47366;BME280;33105;47.964;7.982;2022-07-10T05:37:18;97282.59;;;15.04;79.24
47366;BME280;33105;47.964;7.982;2022-07-10T05:40:19;97287.63;;;15.28;79.03
47366;BME280;33105;47.964;7.982;2022-07-10T05:43:21;97293.91;;;15.43;77.63
47366;BME280;33105;47.964;7.982;2022-07-10T05:46:23;97289.34;;;15.46;77.20
47366;BME280;33105;47.964;7.982;2022-07-10T05:49:24;97297.53;;;15.40;79.32
47366;BME280;33105;47.964;7.982;2022-07-10T05:52:25;97291.03;;;15.30;77.21
47366;BME280;33105;47.964;7.982;2022-07-10T05:55:26;97294.09;;;15.21;78.73
47366;BME280;33105;47.964;7.982;2022-07-10T05:58:28;97291.28;;;15.43;77.36
47366;BME280;33105;47.964;7.982;2022-07-10T06:01:30;97287.31;;;15.51;78.70
47366;BME280;33105;47.964;7.982;2022-07-10T06:04:33;97284.16;;;15.81;77.28
47366;BME280;33105;47.964;7.982;2022-07-10T06:07:35;97277.41;;;16.26;76.05
47366;BME280;33105;47.964;7.982;2022-07-10T06:10:36;97281.91;;;16.24;75.01
47366;BME280;33105;47.964;7.982;2022-07-10T06:13:38;97292.75;;;16.18;76.66
47366;BME280;33105;47.964;7.982;2022-07-10T06:16:40;97295.41;;;16.18;77.06
47366;BME280;33105;47.964;7.982;2022-07-10T06:19:41;97290.41;;;16.29;75.97
47366;BME280;33105;47.964;7.982;2022-07-10T06:22:43;97293.09;;;16.45;76.14
47366;BME280;33105;47.964;7.982;2022-07-10T06:25:44;97295.44;;;16.34;77.52
47366;BME280;33105;47.964;7.982;2022-07-10T06:28:45;97289.16;;;16.36;74.40
47366;BME280;33105;47.964;7.982;2022-07-10T06:31:47;97292.81;;;16.34;74.78
47366;BME280;33105;47.964;7.982;2022-07-10T06:34:48;97291.06;;;16.50;77.10
47366;BME280;33105;47.964;7.982;2022-07-10T06:37:49;97293.63;;;16.68;75.74
47366;BME280;33105;47.964;7.982;2022-07-10T06:40:52;97299.78;;;16.68;77.62
47366;BME280;33105;47.964;7.982;2022-07-10T06:43:54;97298.31;;;16.78;78.10
47366;BME280;33105;47.964;7.982;2022-07-10T06:46:56;97304.75;;;16.90;76.84
47366;BME280;33105;47.964;7.982;2022-07-10T06:50:16;97303.13;;;16.88;77.25
47366;BME280;33105;47.964;7.982;2022-07-10T06:53:17;97304.09;;;16.69;76.35
47366;BME280;33105;47.964;7.982;2022-07-10T06:56:18;97304.53;;;16.62;76.99
47366;BME280;33105;47.964;7.982;2022-07-10T06:59:20;97304.41;;;16.80;78.78
47366;BME280;33105;47.964;7.982;2022-07-10T07:02:21;97307.31;;;17.24;77.42
47366;BME280;33105;47.964;7.982;2022-07-10T07:05:22;97313.09;;;17.14;77.08
47366;BME280;33105;47.964;7.982;2022-07-10T07:08:24;97313.50;;;17.38;78.46
47366;BME280;33105;47.964;7.982;2022-07-10T07:11:26;97316.44;;;17.64;75.74
47366;BME280;33105;47.964;7.982;2022-07-10T07:14:27;97314.38;;;17.85;75.05
47366;BME280;33105;47.964;7.982;2022-07-10T07:17:29;97316.63;;;17.45;73.28
47366;BME280;33105;47.964;7.982;2022-07-10T07:20:46;97315.72;;;17.14;73.79
47366;BME280;33105;47.964;7.982;2022-07-10T07:24:06;97314.09;;;17.28;74.29
47366;BME280;33105;47.964;7.982;2022-07-10T07:27:10;97322.56;;;17.64;74.24
47366;BME280;33105;47.964;7.982;2022-07-10T07:30:14;97320.59;;;17.84;72.94
47366;BME280;33105;47.964;7.982;2022-07-10T07:33:19;97330.06;;;17.56;72.93
47366;BME280;33105;47.964;7.982;2022-07-10T07:36:20;97317.84;;;17.39;74.26
47366;BME280;33105;47.964;7.982;2022-07-10T07:39:21;97318.34;;;17.46;75.28
47366;BME280;33105;47.964;7.982;2022-07-10T07:42:23;97313.69;;;17.81;74.05
47366;BME280;33105;47.964;7.982;2022-07-10T07:45:25;97314.47;;;18.57;71.56
47366;BME280;33105;47.964;7.982;2022-07-10T07:48:27;97307.00;;;19.06;70.20
47366;BME280;33105;47.964;7.982;2022-07-10T07:51:29;97312.56;;;19.02;71.24
47366;BME280;33105;47.964;7.982;2022-07-10T07:54:30;97307.09;;;18.76;69.27
47366;BME280;33105;47.964;7.982;2022-07-10T07:57:31;97310.69;;;18.75;70.20
47366;BME280;33105;47.964;7.982;2022-07-10T08:00:33;97323.03;;;18.17;71.35
47366;BME280;33105;47.964;7.982;2022-07-10T08:03:35;97315.63;;;17.94;71.67
47366;BME280;33105;47.964;7.982;2022-07-10T08:06:37;97313.88;;;18.09;69.91
47366;BME280;33105;47.964;7.982;2022-07-10T08:09:38;97297.28;;;18.64;70.59
47366;BME280;33105;47.964;7.982;2022-07-10T08:12:40;97288.97;;;18.99;70.10
47366;BME280;33105;47.964;7.982;2022-07-10T08:15:42;97293.41;;;18.98;68.73
47366;BME280;33105;47.964;7.982;2022-07-10T08:18:44;97294.47;;;18.67;68.28
47366;BME280;33105;47.964;7.982;2022-07-10T08:21:45;97302.75;;;18.18;68.78
47366;BME280;33105;47.964;7.982;2022-07-10T08:24:47;97312.31;;;17.90;71.86
47366;BME280;33105;47.964;7.982;2022-07-10T08:27:49;97306.63;;;18.27;71.38
47366;BME280;33105;47.964;7.982;2022-07-10T08:30:50;97304.28;;;18.36;69.13
47366;BME280;33105;47.964;7.982;2022-07-10T08:33:51;97294.81;;;18.75;69.46
47366;BME280;33105;47.964;7.982;2022-07-10T08:36:53;97288.94;;;19.13;70.13
47366;BME280;33105;47.964;7.982;2022-07-10T08:39:55;97289.50;;;19.18;64.93
47366;BME280;33105;47.964;7.982;2022-07-10T08:42:57;97282.63;;;19.16;69.40
47366;BME280;33105;47.964;7.982;2022-07-10T08:45:58;97292.06;;;19.47;66.96
47366;BME280;33105;47.964;7.982;2022-07-10T08:49:05;97291.41;;;19.70;65.79
47366;BME280;33105;47.964;7.982;2022-07-10T08:52:15;97285.50;;;19.53;64.70
47366;BME280;33105;47.964;7.982;2022-07-10T08:55:18;97286.09;;;19.16;64.88
47366;BME280;33105;47.964;7.982;2022-07-10T08:58:23;97288.50;;;19.34;66.06
47366;BME280;33105;47.964;7.982;2022-07-10T09:01:25;97286.06;;;19.31;62.91
47366;BME280;33105;47.964;7.982;2022-07-10T09:04:27;97281.25;;;19.50;67.67
47366;BME280;33105;47.964;7.982;2022-07-10T09:07:38;97290.09;;;19.63;64.27
47366;BME280;33105;47.964;7.982;2022-07-10T09:10:42;97295.56;;;19.75;62.56
47366;BME280;33105;47.964;7.982;2022-07-10T09:13:53;97294.66;;;20.14;63.64
47366;BME280;33105;47.964;7.982;2022-07-10T09:16:55;97290.31;;;20.13;60.63
47366;BME280;33105;47.964;7.982;2022-07-10T09:19:56;97289.75;;;19.95;61.76
47366;BME280;33105;47.964;7.982;2022-07-10T09:22:59;97285.22;;;19.97;61.24
47366;BME280;33105;47.964;7.982;2022-07-10T09:26:04;97282.91;;;20.31;62.71
47366;BME280;33105;47.964;7.982;2022-07-10T09:29:10;97278.88;;;20.13;61.25
47366;BME280;33105;47.964;7.982;2022-07-10T09:32:12;97281.94;;;20.06;61.76
47366;BME280;33105;47.964;7.982;2022-07-10T09:35:14;97274.84;;;20.71;61.46
47366;BME280;33105;47.964;7.982;2022-07-10T09:41:45;97273.88;;;20.33;59.51
47366;BME280;33105;47.964;7.982;2022-07-10T09:44:46;97263.56;;;20.80;62.50
47366;BME280;33105;47.964;7.982;2022-07-10T09:47:57;97275.91;;;20.81;58.83
47366;BME280;33105;47.964;7.982;2022-07-10T09:51:01;97271.16;;;20.61;59.04
47366;BME280;33105;47.964;7.982;2022-07-10T09:54:04;97265.69;;;20.49;58.81
47366;BME280;33105;47.964;7.982;2022-07-10T09:57:08;97268.75;;;20.94;57.88
47366;BME280;33105;47.964;7.982;2022-07-10T10:00:11;97260.94;;;21.17;56.67
47366;BME280;33105;47.964;7.982;2022-07-10T10:03:14;97255.38;;;21.20;57.29
47366;BME280;33105;47.964;7.982;2022-07-10T10:06:16;97262.97;;;21.38;56.92
47366;BME280;33105;47.964;7.982;2022-07-10T10:09:26;97254.38;;;21.58;59.77
47366;BME280;33105;47.964;7.982;2022-07-10T10:12:42;97265.56;;;21.26;54.64
47366;BME280;33105;47.964;7.982;2022-07-10T10:15:47;97252.91;;;21.54;54.81
47366;BME280;33105;47.964;7.982;2022-07-10T10:18:50;97256.81;;;21.37;54.67
47366;BME280;33105;47.964;7.982;2022-07-10T10:22:12;97255.50;;;20.94;56.13
47366;BME280;33105;47.964;7.982;2022-07-10T10:25:15;97254.28;;;20.36;57.22
47366;BME280;33105;47.964;7.982;2022-07-10T10:28:19;97254.28;;;20.36;57.68
47366;BME280;33105;47.964;7.982;2022-07-10T10:31:28;97258.31;;;20.42;58.07
47366;BME280;33105;47.964;7.982;2022-07-10T10:34:43;97251.03;;;20.95;58.23
47366;BME280;33105;47.964;7.982;2022-07-10T10:37:50;97251.78;;;21.21;60.49
47366;BME280;33105;47.964;7.982;2022-07-10T10:40:51;97251.59;;;21.11;54.46
47366;BME280;33105;47.964;7.982;2022-07-10T10:47:10;97247.47;;;20.83;54.25
47366;BME280;33105;47.964;7.982;2022-07-10T10:50:50;97253.00;;;20.55;55.00
47366;BME280;33105;47.964;7.982;2022-07-10T10:54:04;97252.25;;;20.52;59.74
47366;BME280;33105;47.964;7.982;2022-07-10T10:57:16;97240.25;;;20.47;57.07
47366;BME280;33105;47.964;7.982;2022-07-10T11:00:30;97242.00;;;20.61;55.23
47366;BME280;33105;47.964;7.982;2022-07-10T11:03:35;97242.47;;;20.79;53.80
47366;BME280;33105;47.964;7.982;2022-07-10T11:06:45;97237.75;;;20.45;52.46
47366;BME280;33105;47.964;7.982;2022-07-10T11:09:46;97234.63;;;20.51;55.17
47366;BME280;33105;47.964;7.982;2022-07-10T11:13:09;97236.38;;;20.89;54.26
47366;BME280;33105;47.964;7.982;2022-07-10T11:16:13;97229.91;;;20.93;52.76
47366;BME280;33105;47.964;7.982;2022-07-10T11:19:19;97233.72;;;21.26;55.16
47366;BME280;33105;47.964;7.982;2022-07-10T11:22:32;97232.47;;;21.19;50.54
47366;BME280;33105;47.964;7.982;2022-07-10T11:25:52;97220.53;;;20.77;52.70
47366;BME280;33105;47.964;7.982;2022-07-10T11:29:03;97223.19;;;21.01;55.20
47366;BME280;33105;47.964;7.982;2022-07-10T11:32:08;97222.94;;;21.17;51.97
47366;BME280;33105;47.964;7.982;2022-07-10T11:35:13;97224.66;;;21.05;50.92
47366;BME280;33105;47.964;7.982;2022-07-10T11:38:22;97212.25;;;20.56;51.22
47366;BME280;33105;47.964;7.982;2022-07-10T11:41:24;97207.19;;;20.52;51.90
47366;BME280;33105;47.964;7.982;2022-07-10T11:44:26;97211.19;;;20.71;49.26
47366;BME280;33105;47.964;7.982;2022-07-10T11:47:29;97210.44;;;21.06;49.94
47366;BME280;33105;47.964;7.982;2022-07-10T11:50:37;97205.25;;;21.28;49.09
47366;BME280;33105;47.964;7.982;2022-07-10T11:53:39;97213.25;;;21.40;48.37
47366;BME280;33105;47.964;7.982;2022-07-10T11:56:49;97210.53;;;21.41;48.40
47366;BME280;33105;47.964;7.982;2022-07-10T11:59:50;97208.84;;;21.27;49.50
47366;BME280;33105;47.964;7.982;2022-07-10T12:02:52;97208.25;;;21.00;48.83
47366;BME280;33105;47.964;7.982;2022-07-10T12:05:54;97211.38;;;21.05;53.31
47366;BME280;33105;47.964;7.982;2022-07-10T12:09:01;97209.44;;;21.44;52.61
47366;BME280;33105;47.964;7.982;2022-07-10T12:12:05;97214.38;;;21.72;50.35
47366;BME280;33105;47.964;7.982;2022-07-10T12:15:07;97207.06;;;21.63;47.74
47366;BME280;33105;47.964;7.982;2022-07-10T12:18:15;97204.97;;;21.20;47.19
47366;BME280;33105;47.964;7.982;2022-07-10T12:21:18;97210.03;;;21.47;51.38
47366;BME280;33105;47.964;7.982;2022-07-10T12:24:20;97194.34;;;21.80;53.97
47366;BME280;33105;47.964;7.982;2022-07-10T12:27:41;97190.19;;;22.45;47.90
47366;BME280;33105;47.964;7.982;2022-07-10T12:30:44;97207.41;;;22.05;46.08
47366;BME280;33105;47.964;7.982;2022-07-10T12:33:50;97204.97;;;21.80;46.26
47366;BME280;33105;47.964;7.982;2022-07-10T12:36:53;97201.34;;;21.81;45.03
47366;BME280;33105;47.964;7.982;2022-07-10T12:39:54;97199.91;;;21.99;45.18
47366;BME280;33105;47.964;7.982;2022-07-10T12:43:03;97208.13;;;21.96;43.57
47366;BME280;33105;47.964;7.982;2022-07-10T12:46:17;97205.34;;;21.86;43.84
47366;BME280;33105;47.964;7.982;2022-07-10T12:49:20;97207.25;;;21.84;45.07
47366;BME280;33105;47.964;7.982;2022-07-10T12:52:29;97202.09;;;21.94;43.15
47366;BME280;33105;47.964;7.982;2022-07-10T12:55:35;97210.69;;;21.97;44.08
47366;BME280;33105;47.964;7.982;2022-07-10T12:58:43;97208.13;;;22.07;41.72
47366;BME280;33105;47.964;7.982;2022-07-10T13:01:45;97198.00;;;22.12;43.58
47366;BME280;33105;47.964;7.982;2022-07-10T13:04:54;97191.47;;;22.16;40.61
47366;BME280;33105;47.964;7.982;2022-07-10T13:11:11;97192.22;;;22.64;42.08
47366;BME280;33105;47.964;7.982;2022-07-10T13:14:13;97186.88;;;22.64;43.41
47366;BME280;33105;47.964;7.982;2022-07-10T13:17:14;97177.00;;;22.43;42.72
47366;BME280;33105;47.964;7.982;2022-07-10T13:20:16;97190.06;;;22.46;40.58
47366;BME280;33105;47.964;7.982;2022-07-10T13:23:18;97192.13;;;22.31;42.05
47366;BME280;33105;47.964;7.982;2022-07-10T13:26:22;97187.16;;;22.61;44.39
47366;BME280;33105;47.964;7.982;2022-07-10T13:29:24;97185.44;;;22.71;44.08
47366;BME280;33105;47.964;7.982;2022-07-10T13:32:26;97191.22;;;22.87;39.04
47366;BME280;33105;47.964;7.982;2022-07-10T13:35:30;97190.78;;;22.37;38.51
47366;BME280;33105;47.964;7.982;2022-07-10T13:38:31;97186.69;;;22.55;41.43
47366;BME280;33105;47.964;7.982;2022-07-10T13:41:33;97191.03;;;22.45;38.31
47366;BME280;33105;47.964;7.982;2022-07-10T13:44:35;97186.41;;;22.13;35.77
47366;BME280;33105;47.964;7.982;2022-07-10T13:47:36;97189.53;;;22.18;36.52
47366;BME280;33105;47.964;7.982;2022-07-10T13:50:41;97184.25;;;22.41;36.84
47366;BME280;33105;47.964;7.982;2022-07-10T13:53:43;97187.63;;;22.54;36.53
47366;BME280;33105;47.964;7.982;2022-07-10T13:56:45;97179.16;;;22.61;37.29
47366;BME280;33105;47.964;7.982;2022-07-10T13:59:46;97180.16;;;22.59;35.98
47366;BME280;33105;47.964;7.982;2022-07-10T14:02:48;97175.16;;;22.55;37.16
47366;BME280;33105;47.964;7.982;2022-07-10T14:05:49;97183.50;;;22.73;38.33
47366;BME280;33105;47.964;7.982;2022-07-10T14:08:50;97178.88;;;22.97;35.60
47366;BME280;33105;47.964;7.982;2022-07-10T14:11:52;97177.59;;;22.69;37.11
47366;BME280;33105;47.964;7.982;2022-07-10T14:14:53;97180.13;;;22.71;38.93
47366;BME280;33105;47.964;7.982;2022-07-10T14:17:55;97177.50;;;22.59;39.92
47366;BME280;33105;47.964;7.982;2022-07-10T14:20:57;97178.28;;;22.83;38.54
47366;BME280;33105;47.964;7.982;2022-07-10T14:24:04;97176.19;;;23.09;39.71
47366;BME280;33105;47.964;7.982;2022-07-10T14:27:06;97167.91;;;23.44;37.54
47366;BME280;33105;47.964;7.982;2022-07-10T14:30:08;97170.06;;;23.29;38.01
47366;BME280;33105;47.964;7.982;2022-07-10T14:33:10;97182.16;;;23.33;36.95
47366;BME280;33105;47.964;7.982;2022-07-10T14:36:12;97177.56;;;23.24;37.72
47366;BME280;33105;47.964;7.982;2022-07-10T14:39:13;97180.03;;;23.16;39.01
47366;BME280;33105;47.964;7.982;2022-07-10T14:42:15;97173.91;;;23.04;39.09
47366;BME280;33105;47.964;7.982;2022-07-10T14:45:16;97184.53;;;22.93;37.11
47366;BME280;33105;47.964;7.982;2022-07-10T14:48:18;97176.25;;;22.64;36.77
47366;BME280;33105;47.964;7.982;2022-07-10T14:51:19;97184.78;;;22.90;36.08
47366;BME280;33105;47.964;7.982;2022-07-10T14:54:21;97180.84;;;22.84;36.29
47366;BME280;33105;47.964;7.982;2022-07-10T14:57:23;97177.72;;;22.56;38.67
47366;BME280;33105;47.964;7.982;2022-07-10T15:00:24;97187.34;;;22.91;38.17
47366;BME280;33105;47.964;7.982;2022-07-10T15:03:26;97177.16;;;22.96;37.19
47366;BME280;33105;47.964;7.982;2022-07-10T15:06:28;97175.97;;;23.00;36.29
47366;BME280;33105;47.964;7.982;2022-07-10T15:09:29;97175.31;;;23.08;38.42
47366;BME280;33105;47.964;7.982;2022-07-10T15:12:31;97171.31;;;23.14;39.96
47366;BME280;33105;47.964;7.982;2022-07-10T15:15:34;97173.31;;;22.89;35.88
47366;BME280;33105;47.964;7.982;2022-07-10T15:18:35;97174.81;;;22.71;35.42
47366;BME280;33105;47.964;7.982;2022-07-10T15:21:37;97169.59;;;22.69;38.68
47366;BME280;33105;47.964;7.982;2022-07-10T15:24:38;97165.84;;;22.72;36.61
47366;BME280;33105;47.964;7.982;2022-07-10T15:27:42;97161.69;;;23.34;38.87
47366;BME280;33105;47.964;7.982;2022-07-10T15:30:43;97153.47;;;23.26;36.66
47366;BME280;33105;47.964;7.982;2022-07-10T15:33:44;97160.91;;;23.22;35.65
47366;BME280;33105;47.964;7.982;2022-07-10T15:36:46;97159.50;;;23.07;36.16
47366;BME280;33105;47.964;7.982;2022-07-10T15:39:49;97161.53;;;23.14;36.36
47366;BME280;33105;47.964;7.982;2022-07-10T15:42:51;97156.75;;;22.86;35.74
47366;BME280;33105;47.964;7.982;2022-07-10T15:45:54;97153.53;;;22.71;35.13
47366;BME280;33105;47.964;7.982;2022-07-10T15:48:55;97157.75;;;22.73;35.21
47366;BME280;33105;47.964;7.982;2022-07-10T15:51:57;97150.63;;;22.63;36.79
47366;BME280;33105;47.964;7.982;2022-07-10T15:55:02;97155.63;;;22.88;37.22
47366;BME280;33105;47.964;7.982;2022-07-10T15:58:04;97148.13;;;23.05;36.66
47366;BME280;33105;47.964;7.982;2022-07-10T16:01:06;97154.56;;;22.91;35.33
47366;BME280;33105;47.964;7.982;2022-07-10T16:04:08;97148.66;;;22.76;35.82
47366;BME280;33105;47.964;7.982;2022-07-10T16:07:10;97155.19;;;22.83;38.47
47366;BME280;33105;47.964;7.982;2022-07-10T16:10:11;97156.38;;;22.79;35.03
47366;BME280;33105;47.964;7.982;2022-07-10T16:13:13;97148.94;;;22.73;35.56
47366;BME280;33105;47.964;7.982;2022-07-10T16:16:15;97151.81;;;22.70;35.13
47366;BME280;33105;47.964;7.982;2022-07-10T16:19:17;97154.06;;;22.42;34.11